Time;durP1;ratioP1;P1;durP2;ratioP2;P2;SDS_P1;SDS_P2;PMS_P1;PMS_P2;Temp;Humidity;BMP_temperature;BMP_pressure;BME280_temperature;BME280_humidity;BME280_pressure;Samples;Min_cycle;Max_cycle;Signal;HPM_P1;HPM_P2
2023/01/08 00:01:06;;;;;;;78.30;40.40;;;;;;;;;;4878535;29;20037;-72
2023/01/08 00:03:33;;;;;;;81.10;38.22;;;;;;;;;;4875007;29;20173;-73
2023/01/08 00:06:03;;;;;;;74.93;41.58;;;;;;;;;;4873241;29;20036;-73
2023/01/08 00:08:30;;;;;;;80.43;41.63;;;;;;;;;;4875349;29;20047;-73
2023/01/08 00:10:56;;;;;;;90.18;43.80;;;;;;;;;;4873709;29;20160;-71
2023/01/08 00:13:22;;;;;;;124.55;66.25;;;;;;;;;;4878452;29;20041;-73
2023/01/08 00:15:48;;;;;;;135.65;68.95;;;;;;;;;;4875493;29;20044;-73
2023/01/08 00:18:14;;;;;;;177.75;94.60;;;;;;;;;;4876732;29;20045;-72
2023/01/08 00:20:44;;;;;;;179.00;91.22;;;;;;;;;;4876086;29;20047;-73
2023/01/08 00:23:15;;;;;;;155.00;81.82;;;;;;;;;;4874633;29;20044;-73
2023/01/08 00:25:41;;;;;;;176.82;90.97;;;;;;;;;;4875526;29;20128;-73
2023/01/08 00:28:07;;;;;;;130.85;66.63;;;;;;;;;;4878207;29;20100;-73
2023/01/08 00:30:32;;;;;;;182.73;98.45;;;;;;;;;;4874780;29;20380;-73
2023/01/08 00:32:58;;;;;;;183.07;97.32;;;;;;;;;;4874537;29;20040;-72
2023/01/08 00:35:24;;;;;;;166.65;89.90;;;;;;;;;;4877023;29;20056;-74
2023/01/08 00:37:50;;;;;;;152.43;82.88;;;;;;;;;;4876567;29;20039;-72
2023/01/08 00:40:16;;;;;;;149.48;80.03;;;;;;;;;;4874734;29;20053;-72
2023/01/08 00:42:42;;;;;;;148.57;77.55;;;;;;;;;;4877897;29;20055;-72
2023/01/08 00:45:08;;;;;;;143.77;80.03;;;;;;;;;;4875807;29;20033;-72
2023/01/08 00:47:34;;;;;;;157.27;87.18;;;;;;;;;;4875838;29;20029;-71
2023/01/08 00:50:00;;;;;;;175.40;90.55;;;;;;;;;;4874950;29;20041;-71
2023/01/08 00:52:25;;;;;;;172.27;89.35;;;;;;;;;;4877608;29;20028;-72
2023/01/08 00:54:51;;;;;;;162.75;84.60;;;;;;;;;;4875227;29;20041;-72
2023/01/08 00:57:18;;;;;;;164.30;88.93;;;;;;;;;;4877636;29;20108;-73
2023/01/08 00:59:44;;;;;;;159.05;80.38;;;;;;;;;;4871573;29;20125;-73
2023/01/08 01:02:09;;;;;;;160.15;84.30;;;;;;;;;;4872567;29;20491;-70
2023/01/08 01:04:35;;;;;;;147.77;77.05;;;;;;;;;;4875447;29;20036;-71
2023/01/08 01:07:01;;;;;;;149.18;80.20;;;;;;;;;;4874107;29;20032;-72
2023/01/08 01:09:27;;;;;;;142.25;74.78;;;;;;;;;;4874867;29;20060;-72
2023/01/08 01:11:53;;;;;;;144.75;73.55;;;;;;;;;;4877921;29;20032;-72
2023/01/08 01:14:19;;;;;;;140.80;71.25;;;;;;;;;;4875253;29;20052;-71
2023/01/08 01:16:47;;;;;;;139.70;73.15;;;;;;;;;;4872664;29;20037;-73
2023/01/08 01:19:15;;;;;;;137.93;72.10;;;;;;;;;;4875828;29;20456;-72
2023/01/08 01:21:40;;;;;;;116.63;58.80;;;;;;;;;;4875734;29;20029;-72
2023/01/08 01:24:06;;;;;;;98.78;50.28;;;;;;;;;;4874799;29;20529;-71
2023/01/08 01:26:33;;;;;;;95.82;48.65;;;;;;;;;;4875364;29;20026;-73
2023/01/08 01:28:59;;;;;;;83.00;41.28;;;;;;;;;;4874357;29;20037;-72
2023/01/08 01:31:28;;;;;;;78.25;41.83;;;;;;;;;;4872353;29;20029;-72
2023/01/08 01:33:54;;;;;;;73.30;38.05;;;;;;;;;;4873245;29;20029;-72
2023/01/08 01:36:24;;;;;;;79.03;40.70;;;;;;;;;;4876139;29;20402;-72
2023/01/08 01:38:52;;;;;;;68.93;37.85;;;;;;;;;;4875427;29;20451;-72
2023/01/08 01:41:35;;;;;;;74.60;38.28;;;;;;;;;;4875772;29;20021;-72
2023/01/08 01:44:35;;;;;;;82.93;40.78;;;;;;;;;;4875321;29;20037;-72
2023/01/08 01:47:29;;;;;;;84.07;42.72;;;;;;;;;;4871308;29;20033;-71
2023/01/08 01:50:09;;;;;;;71.32;37.05;;;;;;;;;;4862208;29;20718;-72
2023/01/08 01:52:43;;;;;;;79.13;39.30;;;;;;;;;;4872470;29;20036;-72
2023/01/08 01:55:14;;;;;;;64.80;35.85;;;;;;;;;;4874895;29;20056;-71
2023/01/08 01:57:45;;;;;;;64.18;35.58;;;;;;;;;;4874089;29;20079;-72
2023/01/08 02:00:11;;;;;;;70.07;34.83;;;;;;;;;;4871984;29;20034;-72
2023/01/08 02:02:40;;;;;;;65.32;31.98;;;;;;;;;;4879628;29;20495;-72
2023/01/08 02:05:07;;;;;;;56.47;31.00;;;;;;;;;;4877315;29;20096;-72
2023/01/08 02:07:39;;;;;;;71.03;33.88;;;;;;;;;;4880358;29;20033;-72
2023/01/08 02:10:28;;;;;;;56.60;30.63;;;;;;;;;;4879869;29;20044;-72
2023/01/08 02:13:03;;;;;;;56.17;30.00;;;;;;;;;;4866696;29;20049;-72
2023/01/08 02:15:40;;;;;;;75.45;32.67;;;;;;;;;;4876543;29;20033;-72
2023/01/08 02:18:17;;;;;;;69.10;29.13;;;;;;;;;;4877508;29;20041;-72
2023/01/08 02:20:49;;;;;;;65.07;29.50;;;;;;;;;;4877847;29;20049;-72
2023/01/08 02:23:36;;;;;;;63.67;28.80;;;;;;;;;;4878954;29;20036;-72
2023/01/08 02:26:33;;;;;;;61.75;29.38;;;;;;;;;;4876937;29;20045;-72
2023/01/08 02:29:16;;;;;;;59.10;28.90;;;;;;;;;;4871234;29;20626;-72
2023/01/08 02:31:43;;;;;;;56.50;30.60;;;;;;;;;;4881037;29;20041;-72
2023/01/08 02:34:10;;;;;;;51.35;26.55;;;;;;;;;;4879220;29;20052;-72
2023/01/08 02:36:44;;;;;;;53.10;28.67;;;;;;;;;;4879513;29;20140;-73
2023/01/08 02:39:15;;;;;;;58.22;28.98;;;;;;;;;;4878929;29;20041;-73
2023/01/08 02:41:50;;;;;;;56.75;31.42;;;;;;;;;;4878373;29;20108;-72
2023/01/08 02:44:24;;;;;;;69.10;32.22;;;;;;;;;;4881166;29;20047;-72
2023/01/08 02:46:53;;;;;;;68.32;35.33;;;;;;;;;;4879281;29;20037;-73
2023/01/08 02:49:23;;;;;;;65.38;32.72;;;;;;;;;;4875953;29;20052;-72
2023/01/08 02:51:53;;;;;;;58.70;29.20;;;;;;;;;;4877015;29;20033;-71
2023/01/08 02:54:23;;;;;;;49.92;27.25;;;;;;;;;;4877342;29;20049;-72
2023/01/08 02:56:56;;;;;;;39.72;23.08;;;;;;;;;;4874964;29;20056;-73
2023/01/08 02:59:23;;;;;;;25.90;15.18;;;;;;;;;;4884574;29;20385;-71
2023/01/08 03:01:50;;;;;;;26.25;14.60;;;;;;;;;;4877779;29;20063;-73
2023/01/08 03:04:23;;;;;;;27.98;13.18;;;;;;;;;;4879106;29;20037;-72
2023/01/08 03:06:49;;;;;;;33.72;17.00;;;;;;;;;;4875689;29;20041;-72
2023/01/08 03:09:16;;;;;;;29.35;15.88;;;;;;;;;;4880698;29;20396;-72
2023/01/08 03:11:56;;;;;;;30.13;15.57;;;;;;;;;;4878457;29;20071;-72
2023/01/08 03:14:31;;;;;;;24.98;15.00;;;;;;;;;;4876429;29;20052;-72
2023/01/08 03:17:04;;;;;;;29.67;16.45;;;;;;;;;;4875950;29;20055;-72
2023/01/08 03:19:40;;;;;;;34.95;18.55;;;;;;;;;;4875030;29;20454;-72
2023/01/08 03:22:12;;;;;;;32.38;16.73;;;;;;;;;;4876958;29;20072;-71
2023/01/08 03:24:39;;;;;;;35.97;18.23;;;;;;;;;;4877766;29;20041;-72
2023/01/08 03:27:12;;;;;;;30.30;16.67;;;;;;;;;;4876960;29;20024;-72
2023/01/08 03:29:39;;;;;;;27.20;15.45;;;;;;;;;;4878475;29;20092;-71
2023/01/08 03:32:12;;;;;;;27.30;15.57;;;;;;;;;;4875800;29;20097;-72
2023/01/08 03:34:42;;;;;;;33.00;16.57;;;;;;;;;;4878819;29;20052;-72
2023/01/08 03:37:10;;;;;;;35.13;18.27;;;;;;;;;;4877214;29;20040;-72
2023/01/08 03:39:51;;;;;;;37.92;18.55;;;;;;;;;;4878108;29;20409;-72
2023/01/08 03:42:19;;;;;;;34.10;18.90;;;;;;;;;;4879581;29;20037;-72
2023/01/08 03:44:45;;;;;;;34.17;17.83;;;;;;;;;;4877485;29;20063;-72
2023/01/08 03:47:13;;;;;;;27.50;15.13;;;;;;;;;;4875447;29;20034;-72
2023/01/08 03:49:41;;;;;;;31.10;15.70;;;;;;;;;;4875073;29;20029;-72
2023/01/08 03:52:07;;;;;;;25.60;14.48;;;;;;;;;;4879127;29;20440;-72
2023/01/08 03:54:35;;;;;;;27.15;14.80;;;;;;;;;;4878156;29;20025;-73
2023/01/08 03:57:01;;;;;;;27.63;15.45;;;;;;;;;;4877168;29;20044;-73
2023/01/08 03:59:27;;;;;;;27.88;16.05;;;;;;;;;;4877476;29;20025;-73
2023/01/08 04:01:53;;;;;;;27.05;15.27;;;;;;;;;;4876106;29;20403;-72
2023/01/08 04:04:19;;;;;;;24.50;14.48;;;;;;;;;;4876604;29;20048;-72
2023/01/08 04:06:45;;;;;;;26.75;14.35;;;;;;;;;;4877174;29;20068;-72
2023/01/08 04:09:11;;;;;;;26.38;14.23;;;;;;;;;;4876519;29;20381;-73
2023/01/08 04:11:36;;;;;;;23.98;14.15;;;;;;;;;;4874527;29;20495;-72
2023/01/08 04:14:02;;;;;;;23.67;12.30;;;;;;;;;;4877247;29;20029;-72
2023/01/08 04:16:28;;;;;;;23.52;11.82;;;;;;;;;;4877200;29;20072;-72
2023/01/08 04:18:54;;;;;;;24.98;12.48;;;;;;;;;;4872289;29;20562;-73
2023/01/08 04:21:20;;;;;;;24.50;12.40;;;;;;;;;;4876929;29;20033;-72
2023/01/08 04:23:46;;;;;;;21.88;12.38;;;;;;;;;;4875354;29;20025;-71
2023/01/08 04:26:12;;;;;;;20.33;11.23;;;;;;;;;;4875354;29;20049;-72
2023/01/08 04:28:38;;;;;;;35.05;15.13;;;;;;;;;;4876222;29;20037;-72
2023/01/08 04:31:06;;;;;;;29.02;14.73;;;;;;;;;;4876566;29;20029;-72
2023/01/08 04:33:32;;;;;;;32.97;16.00;;;;;;;;;;4876772;29;20036;-72
2023/01/08 04:35:57;;;;;;;31.83;14.80;;;;;;;;;;4877225;29;20048;-73
2023/01/08 04:38:23;;;;;;;26.42;13.90;;;;;;;;;;4882961;29;20093;-73
2023/01/08 04:40:49;;;;;;;30.73;14.75;;;;;;;;;;4881732;29;20045;-72
2023/01/08 04:43:15;;;;;;;29.88;14.75;;;;;;;;;;4884039;29;20033;-72
2023/01/08 04:45:41;;;;;;;25.05;12.07;;;;;;;;;;4874553;29;20518;-72
2023/01/08 04:48:07;;;;;;;23.88;12.55;;;;;;;;;;4875564;29;20132;-73
2023/01/08 04:50:33;;;;;;;27.92;13.88;;;;;;;;;;4876963;29;20037;-72
2023/01/08 04:52:59;;;;;;;28.30;13.40;;;;;;;;;;4876680;29;20052;-72
2023/01/08 04:55:24;;;;;;;23.95;11.77;;;;;;;;;;4876444;29;20211;-72
2023/01/08 04:57:50;;;;;;;20.30;10.60;;;;;;;;;;4878687;29;20104;-72
2023/01/08 05:00:16;;;;;;;17.73;10.98;;;;;;;;;;4876778;29;20044;-72
2023/01/08 05:02:42;;;;;;;20.25;10.85;;;;;;;;;;4871684;29;20045;-72
2023/01/08 05:05:08;;;;;;;17.08;9.68;;;;;;;;;;4873931;29;20037;-72
2023/01/08 05:07:34;;;;;;;19.73;10.57;;;;;;;;;;4876177;29;20033;-71
2023/01/08 05:09:59;;;;;;;21.95;10.10;;;;;;;;;;4875097;29;20101;-72
2023/01/08 05:12:25;;;;;;;18.30;9.43;;;;;;;;;;4878165;29;20025;-73
2023/01/08 05:14:51;;;;;;;17.17;9.20;;;;;;;;;;4873713;29;20564;-71
2023/01/08 05:17:17;;;;;;;17.48;8.85;;;;;;;;;;4876334;29;20029;-73
2023/01/08 05:19:42;;;;;;;15.70;9.35;;;;;;;;;;4876121;29;20068;-72
2023/01/08 05:22:08;;;;;;;15.88;9.27;;;;;;;;;;4875970;29;20028;-71
2023/01/08 05:24:34;;;;;;;17.17;9.80;;;;;;;;;;4876523;29;20055;-72
2023/01/08 05:27:00;;;;;;;21.77;9.32;;;;;;;;;;4873156;29;20043;-73
2023/01/08 05:29:26;;;;;;;18.30;10.20;;;;;;;;;;4876343;29;20459;-72
2023/01/08 05:31:51;;;;;;;25.60;12.32;;;;;;;;;;4875916;29;20029;-72
2023/01/08 05:34:17;;;;;;;27.50;13.45;;;;;;;;;;4875239;29;20518;-72
2023/01/08 05:36:43;;;;;;;29.67;14.68;;;;;;;;;;4874743;29;20028;-72
2023/01/08 05:39:09;;;;;;;29.98;15.50;;;;;;;;;;4876249;29;20049;-73
2023/01/08 05:41:35;;;;;;;31.98;15.73;;;;;;;;;;4876034;29;20033;-72
2023/01/08 05:44:01;;;;;;;35.55;15.32;;;;;;;;;;4876105;29;20040;-72
2023/01/08 05:46:27;;;;;;;32.08;15.07;;;;;;;;;;4874728;29;20040;-73
2023/01/08 05:48:53;;;;;;;29.10;14.55;;;;;;;;;;4873311;29;20093;-74
2023/01/08 05:51:18;;;;;;;29.20;14.75;;;;;;;;;;4875766;29;20025;-72
2023/01/08 05:53:44;;;;;;;30.77;14.82;;;;;;;;;;4874959;29;20037;-71
2023/01/08 05:56:11;;;;;;;29.90;14.38;;;;;;;;;;4878254;29;20037;-72
2023/01/08 05:58:37;;;;;;;29.15;13.80;;;;;;;;;;4874770;29;20515;-71
2023/01/08 06:01:03;;;;;;;25.83;13.20;;;;;;;;;;4875798;29;20035;-73
2023/01/08 06:03:29;;;;;;;27.52;14.60;;;;;;;;;;4876551;29;20052;-72
2023/01/08 06:06:01;;;;;;;29.25;13.50;;;;;;;;;;4871145;29;20051;-72
2023/01/08 06:08:28;;;;;;;25.35;14.85;;;;;;;;;;4871184;29;20040;-73
2023/01/08 06:10:54;;;;;;;30.80;15.60;;;;;;;;;;4876710;29;20459;-72
2023/01/08 06:13:20;;;;;;;26.50;12.50;;;;;;;;;;4874953;29;20130;-73
2023/01/08 06:15:45;;;;;;;21.13;11.07;;;;;;;;;;4870382;29;20395;-73
2023/01/08 06:18:12;;;;;;;25.83;13.40;;;;;;;;;;4874131;29;20045;-72
2023/01/08 06:20:37;;;;;;;27.90;13.27;;;;;;;;;;4872372;29;20033;-72
2023/01/08 06:23:03;;;;;;;27.40;13.45;;;;;;;;;;4874766;29;20030;-73
2023/01/08 06:25:29;;;;;;;28.75;13.48;;;;;;;;;;4875173;29;20394;-74
2023/01/08 06:27:55;;;;;;;25.35;13.50;;;;;;;;;;4877287;29;20033;-74
2023/01/08 06:30:21;;;;;;;26.05;12.57;;;;;;;;;;4875102;29;20036;-73
2023/01/08 06:32:46;;;;;;;24.83;12.95;;;;;;;;;;4873960;29;20476;-73
2023/01/08 06:35:12;;;;;;;22.67;12.15;;;;;;;;;;4871329;29;20108;-72
2023/01/08 06:37:38;;;;;;;23.17;11.98;;;;;;;;;;4876071;29;20479;-73
2023/01/08 06:40:04;;;;;;;27.60;13.93;;;;;;;;;;4874208;29;20034;-73
2023/01/08 06:42:30;;;;;;;30.38;14.77;;;;;;;;;;4877518;29;20065;-72
2023/01/08 06:44:56;;;;;;;25.85;14.98;;;;;;;;;;4874305;29;20114;-72
2023/01/08 06:47:22;;;;;;;26.45;15.02;;;;;;;;;;4870785;29;20240;-72
2023/01/08 06:49:47;;;;;;;29.80;15.18;;;;;;;;;;4878560;29;20029;-72
2023/01/08 06:52:14;;;;;;;29.60;15.57;;;;;;;;;;4880034;29;20401;-72
2023/01/08 06:54:40;;;;;;;27.33;15.80;;;;;;;;;;4878896;29;20155;-74
2023/01/08 06:57:05;;;;;;;27.10;14.85;;;;;;;;;;4877849;29;20048;-74
2023/01/08 06:59:31;;;;;;;25.17;14.85;;;;;;;;;;4875261;29;20017;-73
2023/01/08 07:01:57;;;;;;;23.52;14.23;;;;;;;;;;4875807;29;20400;-73
2023/01/08 07:04:23;;;;;;;24.00;14.30;;;;;;;;;;4875964;29;20453;-74
2023/01/08 07:06:49;;;;;;;24.25;14.73;;;;;;;;;;4879257;29;20036;-73
2023/01/08 07:09:15;;;;;;;35.03;17.80;;;;;;;;;;4878079;29;20044;-74
2023/01/08 07:11:41;;;;;;;37.80;20.65;;;;;;;;;;4879063;29;20035;-73
2023/01/08 07:14:07;;;;;;;32.95;20.88;;;;;;;;;;4877372;29;20075;-73
2023/01/08 07:16:33;;;;;;;28.75;18.88;;;;;;;;;;4879196;29;20034;-75
2023/01/08 07:18:59;;;;;;;31.40;19.40;;;;;;;;;;4878339;29;20021;-74
2023/01/08 07:21:25;;;;;;;35.28;22.30;;;;;;;;;;4878131;29;20033;-73
2023/01/08 07:23:50;;;;;;;32.25;19.05;;;;;;;;;;4878251;29;20502;-73
2023/01/08 07:26:16;;;;;;;28.00;17.45;;;;;;;;;;4877982;29;20152;-75
2023/01/08 07:28:44;;;;;;;26.25;17.10;;;;;;;;;;4877506;29;20036;-73
2023/01/08 07:31:10;;;;;;;31.52;17.30;;;;;;;;;;4872429;29;20037;-75
2023/01/08 07:33:36;;;;;;;29.63;17.13;;;;;;;;;;4874689;29;20039;-74
2023/01/08 07:36:01;;;;;;;25.50;16.08;;;;;;;;;;4875908;29;20126;-72
2023/01/08 07:38:27;;;;;;;29.63;17.27;;;;;;;;;;4879747;29;20025;-74
2023/01/08 07:40:53;;;;;;;28.80;16.30;;;;;;;;;;4875872;29;20124;-71
2023/01/08 07:43:19;;;;;;;29.52;17.55;;;;;;;;;;4879289;29;20128;-72
2023/01/08 07:45:45;;;;;;;33.70;18.48;;;;;;;;;;4876547;29;20448;-73
2023/01/08 07:48:15;;;;;;;30.77;19.17;;;;;;;;;;4874879;29;20037;-74
2023/01/08 07:50:42;;;;;;;23.30;14.65;;;;;;;;;;4877231;29;20051;-74
2023/01/08 07:53:08;;;;;;;24.23;14.25;;;;;;;;;;4874539;29;20029;-73
2023/01/08 07:55:34;;;;;;;23.83;13.10;;;;;;;;;;4876668;29;20033;-73
2023/01/08 07:58:05;;;;;;;22.38;13.05;;;;;;;;;;4861951;29;20055;-73
2023/01/08 08:00:31;;;;;;;20.77;12.90;;;;;;;;;;4873480;29;20048;-74
2023/01/08 08:03:02;;;;;;;23.92;14.18;;;;;;;;;;4875050;29;20041;-74
2023/01/08 08:05:28;;;;;;;24.90;14.50;;;;;;;;;;4874225;29;20033;-73
2023/01/08 08:07:54;;;;;;;21.40;13.68;;;;;;;;;;4875368;29;21297;-73
2023/01/08 08:10:19;;;;;;;22.88;13.95;;;;;;;;;;4876067;29;20076;-74
2023/01/08 08:12:45;;;;;;;20.48;13.15;;;;;;;;;;4876307;29;20025;-74
2023/01/08 08:15:11;;;;;;;21.13;12.85;;;;;;;;;;4873724;29;20125;-73
2023/01/08 08:17:37;;;;;;;22.92;13.35;;;;;;;;;;4873132;29;20503;-74
2023/01/08 08:20:03;;;;;;;24.30;14.60;;;;;;;;;;4877329;29;20112;-73
2023/01/08 08:22:29;;;;;;;24.00;14.02;;;;;;;;;;4878501;29;20025;-73
2023/01/08 08:24:55;;;;;;;23.27;13.48;;;;;;;;;;4876273;29;20118;-73
2023/01/08 08:27:23;;;;;;;20.25;12.75;;;;;;;;;;4873710;29;20032;-74
2023/01/08 08:29:48;;;;;;;21.63;13.82;;;;;;;;;;4873158;29;20045;-74
2023/01/08 08:32:14;;;;;;;25.83;14.20;;;;;;;;;;4874599;29;20025;-73
2023/01/08 08:34:40;;;;;;;23.25;13.50;;;;;;;;;;4874873;29;20033;-74
2023/01/08 08:37:07;;;;;;;23.35;12.98;;;;;;;;;;4876981;29;20430;-74
2023/01/08 08:39:33;;;;;;;22.50;14.10;;;;;;;;;;4875761;29;20397;-73
2023/01/08 08:41:59;;;;;;;23.15;13.38;;;;;;;;;;4876211;29;20465;-75
2023/01/08 08:44:25;;;;;;;24.92;13.43;;;;;;;;;;4876266;29;20064;-74
2023/01/08 08:46:51;;;;;;;23.80;13.48;;;;;;;;;;4874493;29;20510;-73
2023/01/08 08:49:17;;;;;;;21.15;12.95;;;;;;;;;;4876566;29;20079;-73
2023/01/08 08:51:42;;;;;;;23.48;13.85;;;;;;;;;;4872728;29;20032;-74
2023/01/08 08:54:10;;;;;;;23.30;13.73;;;;;;;;;;4877171;29;20040;-74
2023/01/08 08:56:36;;;;;;;23.30;13.90;;;;;;;;;;4876747;29;20033;-74
2023/01/08 08:59:02;;;;;;;23.45;13.20;;;;;;;;;;4875695;29;20476;-74
2023/01/08 09:01:29;;;;;;;21.45;13.35;;;;;;;;;;4875658;29;20458;-73
2023/01/08 09:03:55;;;;;;;24.05;14.30;;;;;;;;;;4876525;29;20499;-72
2023/01/08 09:06:20;;;;;;;23.65;15.00;;;;;;;;;;4871760;29;20033;-74
2023/01/08 09:08:46;;;;;;;27.73;15.95;;;;;;;;;;4870806;29;20377;-73
2023/01/08 09:11:12;;;;;;;23.90;14.48;;;;;;;;;;4872216;29;20025;-73
2023/01/08 09:13:38;;;;;;;23.77;14.10;;;;;;;;;;4873329;29;20041;-75
2023/01/08 09:16:04;;;;;;;21.55;13.63;;;;;;;;;;4876666;29;20035;-73
2023/01/08 09:18:32;;;;;;;24.42;15.15;;;;;;;;;;4873343;29;20620;-73
2023/01/08 09:20:58;;;;;;;27.70;15.32;;;;;;;;;;4872448;29;20052;-72
2023/01/08 09:23:23;;;;;;;21.88;14.55;;;;;;;;;;4874422;29;20033;-73
2023/01/08 09:25:49;;;;;;;26.05;15.63;;;;;;;;;;4876663;29;20040;-73
2023/01/08 09:28:16;;;;;;;23.40;14.98;;;;;;;;;;4857965;29;20128;-73
2023/01/08 09:30:41;;;;;;;24.17;15.07;;;;;;;;;;4875965;29;20036;-73
2023/01/08 09:33:09;;;;;;;25.00;15.43;;;;;;;;;;4874646;29;20521;-73
2023/01/08 09:35:34;;;;;;;27.98;15.25;;;;;;;;;;4876276;29;20029;-73
2023/01/08 09:38:00;;;;;;;26.40;16.88;;;;;;;;;;4873609;29;20041;-73
2023/01/08 09:40:50;;;;;;;29.70;16.25;;;;;;;;;;4873297;29;20021;-72
2023/01/08 09:43:19;;;;;;;28.23;18.58;;;;;;;;;;4891775;29;20057;-73
2023/01/08 09:45:50;;;;;;;28.08;16.60;;;;;;;;;;4876219;29;20029;-73
2023/01/08 09:48:21;;;;;;;28.88;17.00;;;;;;;;;;4872455;29;20452;-73
2023/01/08 09:50:47;;;;;;;27.35;17.70;;;;;;;;;;4877429;29;20040;-72
2023/01/08 09:53:16;;;;;;;32.75;18.30;;;;;;;;;;4873882;29;20101;-74
2023/01/08 09:55:43;;;;;;;27.25;18.27;;;;;;;;;;4877160;29;20149;-73
2023/01/08 09:58:22;;;;;;;28.65;17.25;;;;;;;;;;4879518;29;20092;-74
2023/01/08 10:00:48;;;;;;;29.23;17.27;;;;;;;;;;4879116;29;20476;-72
2023/01/08 10:03:14;;;;;;;26.70;15.93;;;;;;;;;;4878180;29;20547;-72
2023/01/08 10:05:40;;;;;;;29.15;17.95;;;;;;;;;;4873750;29;20068;-73
2023/01/08 10:08:12;;;;;;;28.52;18.30;;;;;;;;;;4877261;29;20111;-73
2023/01/08 10:10:40;;;;;;;27.88;17.17;;;;;;;;;;4875366;29;20093;-73
2023/01/08 10:13:08;;;;;;;30.83;19.25;;;;;;;;;;4875496;29;20028;-73
2023/01/08 10:15:34;;;;;;;31.40;20.08;;;;;;;;;;4874039;29;20048;-73
2023/01/08 10:18:05;;;;;;;31.58;20.35;;;;;;;;;;4872770;29;20044;-74
2023/01/08 10:20:33;;;;;;;37.95;21.13;;;;;;;;;;4874001;29;20067;-74
2023/01/08 10:23:16;;;;;;;34.03;20.35;;;;;;;;;;4878588;29;20025;-73
2023/01/08 10:25:58;;;;;;;32.08;20.40;;;;;;;;;;4880948;29;20041;-72
2023/01/08 10:28:29;;;;;;;32.33;20.10;;;;;;;;;;4879411;29;20047;-72
2023/01/08 10:31:15;;;;;;;31.80;20.20;;;;;;;;;;4881797;29;20124;-73
2023/01/08 10:33:48;;;;;;;31.15;18.55;;;;;;;;;;4881110;29;20456;-73
2023/01/08 10:36:17;;;;;;;34.53;19.50;;;;;;;;;;4881556;29;20351;-73
2023/01/08 10:39:19;;;;;;;30.38;20.63;;;;;;;;;;4881793;29;20028;-72
2023/01/08 10:41:47;;;;;;;38.65;21.88;;;;;;;;;;4876217;29;20104;-73
2023/01/08 10:44:18;;;;;;;54.13;32.60;;;;;;;;;;4879261;29;20037;-73
2023/01/08 10:46:48;;;;;;;41.08;23.38;;;;;;;;;;4879375;29;20041;-73
2023/01/08 10:49:28;;;;;;;34.55;23.10;;;;;;;;;;4880539;29;20088;-75
2023/01/08 10:51:55;;;;;;;33.53;22.10;;;;;;;;;;4881347;29;20092;-74
2023/01/08 10:54:38;;;;;;;35.05;23.20;;;;;;;;;;4880905;29;20029;-72
2023/01/08 10:57:24;;;;;;;39.97;23.53;;;;;;;;;;4881368;29;20043;-73
2023/01/08 10:59:50;;;;;;;33.72;22.52;;;;;;;;;;4876327;29;20272;-72
2023/01/08 11:02:36;;;;;;;36.40;23.27;;;;;;;;;;4876656;29;20047;-72
2023/01/08 11:05:06;;;;;;;38.25;24.02;;;;;;;;;;4881070;29;20041;-73
2023/01/08 11:07:34;;;;;;;43.65;26.13;;;;;;;;;;4879784;29;20033;-74
2023/01/08 11:10:01;;;;;;;40.13;25.60;;;;;;;;;;4885138;29;20041;-74
2023/01/08 11:12:40;;;;;;;36.95;24.02;;;;;;;;;;4878767;29;20093;-74
2023/01/08 11:15:18;;;;;;;36.65;24.70;;;;;;;;;;4874440;29;20467;-73
2023/01/08 11:17:44;;;;;;;34.85;23.10;;;;;;;;;;4876191;29;20124;-72
2023/01/08 11:20:22;;;;;;;36.20;23.75;;;;;;;;;;4880797;29;20032;-73
2023/01/08 11:22:49;;;;;;;36.30;23.88;;;;;;;;;;4879331;29;20030;-73
2023/01/08 11:25:23;;;;;;;39.45;24.33;;;;;;;;;;4879460;29;20029;-73
2023/01/08 11:27:51;;;;;;;38.00;23.52;;;;;;;;;;4880824;29;20029;-71
2023/01/08 11:30:19;;;;;;;39.28;25.30;;;;;;;;;;4880708;29;20032;-73
2023/01/08 11:32:53;;;;;;;40.03;25.52;;;;;;;;;;4879926;29;20437;-73
2023/01/08 11:35:32;;;;;;;39.25;25.98;;;;;;;;;;4879319;29;20082;-73
2023/01/08 11:38:01;;;;;;;37.55;25.27;;;;;;;;;;4877302;29;20399;-73
2023/01/08 11:40:30;;;;;;;45.65;28.27;;;;;;;;;;4880176;29;20348;-73
2023/01/08 11:43:29;;;;;;;44.30;28.58;;;;;;;;;;4880225;29;20112;-73
2023/01/08 11:46:32;;;;;;;45.40;27.50;;;;;;;;;;4859175;29;20131;-73
2023/01/08 11:49:20;;;;;;;41.00;25.35;;;;;;;;;;4879565;29;20535;-73
2023/01/08 11:51:57;;;;;;;38.58;25.33;;;;;;;;;;4873488;29;20033;-73
2023/01/08 11:54:35;;;;;;;43.22;28.27;;;;;;;;;;4877676;29;20048;-73
2023/01/08 11:57:38;;;;;;;48.65;29.42;;;;;;;;;;4877649;29;20029;-74
2023/01/08 12:00:26;;;;;;;48.33;28.85;;;;;;;;;;4877434;29;20146;-71
2023/01/08 12:02:59;;;;;;;35.83;23.67;;;;;;;;;;4876783;29;20471;-73
2023/01/08 12:05:25;;;;;;;40.50;25.92;;;;;;;;;;4877144;29;20059;-72
2023/01/08 12:08:26;;;;;;;41.95;25.70;;;;;;;;;;4879693;29;20535;-72
2023/01/08 12:11:05;;;;;;;36.35;21.92;;;;;;;;;;4878747;29;20037;-73
2023/01/08 12:13:49;;;;;;;38.05;24.08;;;;;;;;;;4879175;29;20076;-72
2023/01/08 12:16:29;;;;;;;37.30;24.20;;;;;;;;;;4878069;29;20109;-72
2023/01/08 12:19:13;;;;;;;38.20;24.48;;;;;;;;;;4877864;29;20033;-72
2023/01/08 12:22:16;;;;;;;43.40;24.15;;;;;;;;;;4878225;29;20029;-72
2023/01/08 12:24:42;;;;;;;48.08;27.38;;;;;;;;;;4878898;29;20113;-73
2023/01/08 12:27:41;;;;;;;44.33;27.50;;;;;;;;;;4879295;29;20487;-71
2023/01/08 12:30:29;;;;;;;43.60;25.60;;;;;;;;;;4879090;29;20040;-73
2023/01/08 12:33:02;;;;;;;45.33;25.85;;;;;;;;;;4877453;29;20491;-73
2023/01/08 12:35:38;;;;;;;43.33;26.55;;;;;;;;;;4878994;29;20403;-74
2023/01/08 12:38:16;;;;;;;43.63;25.70;;;;;;;;;;4881441;29;20041;-73
2023/01/08 12:40:46;;;;;;;42.05;26.17;;;;;;;;;;4875691;29;20136;-72
2023/01/08 12:43:24;;;;;;;42.47;26.60;;;;;;;;;;4873019;29;20032;-72
2023/01/08 12:45:54;;;;;;;43.00;26.10;;;;;;;;;;4874284;29;20052;-73
2023/01/08 12:48:27;;;;;;;38.13;24.67;;;;;;;;;;4878203;29;20025;-72
2023/01/08 12:51:20;;;;;;;45.92;25.85;;;;;;;;;;4876053;29;20151;-72
2023/01/08 12:54:00;;;;;;;44.40;26.10;;;;;;;;;;4876954;29;20075;-72
2023/01/08 12:56:34;;;;;;;47.17;27.83;;;;;;;;;;4878319;29;20385;-72
2023/01/08 12:59:07;;;;;;;49.10;29.13;;;;;;;;;;4877952;29;20137;-72
2023/01/08 13:02:04;;;;;;;45.70;25.77;;;;;;;;;;4862525;29;20040;-74
2023/01/08 13:04:46;;;;;;;42.20;24.80;;;;;;;;;;4876115;29;20081;-71
2023/01/08 13:07:41;;;;;;;34.10;22.10;;;;;;;;;;4879451;29;20041;-69
2023/01/08 13:10:19;;;;;;;39.75;26.95;;;;;;;;;;4878829;29;20048;-71
2023/01/08 13:12:51;;;;;;;39.15;24.23;;;;;;;;;;4877880;29;20097;-71
2023/01/08 13:15:25;;;;;;;39.78;25.33;;;;;;;;;;4878757;29;20093;-73
2023/01/08 13:17:54;;;;;;;38.03;22.67;;;;;;;;;;4876653;29;20403;-73
2023/01/08 13:20:27;;;;;;;41.05;23.63;;;;;;;;;;4877644;29;20395;-72
2023/01/08 13:22:57;;;;;;;42.83;26.73;;;;;;;;;;4875825;29;20044;-71
2023/01/08 13:25:23;;;;;;;41.08;23.83;;;;;;;;;;4878018;29;20101;-72
2023/01/08 13:27:49;;;;;;;36.33;23.10;;;;;;;;;;4878081;29;20033;-72
2023/01/08 13:30:38;;;;;;;34.92;22.23;;;;;;;;;;4878071;29;20037;-73
2023/01/08 13:33:24;;;;;;;35.72;22.33;;;;;;;;;;4877710;29;20044;-72
2023/01/08 13:35:49;;;;;;;46.25;24.70;;;;;;;;;;4877342;29;20045;-72
2023/01/08 13:38:19;;;;;;;33.28;20.60;;;;;;;;;;4877369;29;20092;-70
2023/01/08 13:40:45;;;;;;;29.00;17.73;;;;;;;;;;4876185;29;20049;-72
2023/01/08 13:43:18;;;;;;;28.33;16.50;;;;;;;;;;4876919;29;20368;-72
2023/01/08 13:46:01;;;;;;;22.20;13.68;;;;;;;;;;4876361;29;20065;-72
2023/01/08 13:48:31;;;;;;;17.30;10.95;;;;;;;;;;4877423;29;20047;-72
2023/01/08 13:50:57;;;;;;;18.55;10.90;;;;;;;;;;4877044;29;20037;-72
2023/01/08 13:53:23;;;;;;;17.25;11.82;;;;;;;;;;4877533;29;20399;-72
2023/01/08 13:56:06;;;;;;;22.17;13.38;;;;;;;;;;4876697;29;20048;-72
2023/01/08 13:58:39;;;;;;;15.75;10.30;;;;;;;;;;4897273;29;20032;-73
2023/01/08 14:01:06;;;;;;;22.13;11.55;;;;;;;;;;4895457;29;20032;-74
2023/01/08 14:03:43;;;;;;;17.30;11.73;;;;;;;;;;4895412;29;20075;-73
2023/01/08 14:06:21;;;;;;;23.90;11.57;;;;;;;;;;4896166;29;20036;-74
2023/01/08 14:08:55;;;;;;;20.17;11.65;;;;;;;;;;4895925;29;20040;-71
2023/01/08 14:11:27;;;;;;;23.23;13.25;;;;;;;;;;4896383;29;20120;-73
2023/01/08 14:13:53;;;;;;;21.88;14.43;;;;;;;;;;4895147;29;20055;-72
2023/01/08 14:16:20;;;;;;;28.05;15.43;;;;;;;;;;4894689;29;20064;-73
2023/01/08 14:18:46;;;;;;;79.75;35.55;;;;;;;;;;4896066;29;20064;-74
2023/01/08 14:21:13;;;;;;;65.25;32.88;;;;;;;;;;4895988;29;20039;-73
2023/01/08 14:23:46;;;;;;;28.15;17.33;;;;;;;;;;4895885;29;20044;-74
2023/01/08 14:26:35;;;;;;;28.73;17.17;;;;;;;;;;4894737;29;20028;-74
2023/01/08 14:29:11;;;;;;;41.45;25.48;;;;;;;;;;4889750;29;20055;-72
2023/01/08 14:31:36;;;;;;;37.95;20.00;;;;;;;;;;4894804;29;20040;-74
2023/01/08 14:34:03;;;;;;;32.08;17.90;;;;;;;;;;4895720;29;20032;-74